Time;durP1;ratioP1;P1;durP2;ratioP2;P2;SDS_P1;SDS_P2;PMS_P1;PMS_P2;Temp;Humidity;BMP_temperature;BMP_pressure;BME280_temperature;BME280_humidity;BME280_pressure;Samples;Min_cycle;Max_cycle;Signal;HPM_P1;HPM_P2
2023/03/20 00:02:19;;;;;;;14.85;9.77;;;;;;;10.13;75.71;101748.41;3608745;39;20079;-69
2023/03/20 00:04:45;;;;;;;13.23;8.77;;;;;;;10.17;75.73;101755.41;3599651;39;20995;-69
2023/03/20 00:07:11;;;;;;;14.43;9.48;;;;;;;10.18;75.95;101765.19;3612291;39;20054;-69
2023/03/20 00:09:38;;;;;;;12.85;9.10;;;;;;;10.18;74.77;101749.06;3617867;39;20043;-69
2023/03/20 00:12:05;;;;;;;15.13;8.95;;;;;;;10.16;75.29;101749.16;3612736;39;20095;-69
2023/03/20 00:14:32;;;;;;;13.68;9.10;;;;;;;10.16;74.21;101742.91;3606312;39;20054;-69
2023/03/20 00:16:58;;;;;;;15.80;8.35;;;;;;;10.15;74.66;101752.78;3607462;39;20059;-69
2023/03/20 00:19:28;;;;;;;15.55;9.02;;;;;;;9.93;74.78;101715.28;3608916;39;20465;-69
2023/03/20 00:21:55;;;;;;;13.57;9.60;;;;;;;10.17;74.27;101750.03;3610827;39;20140;-69
2023/03/20 00:24:22;;;;;;;15.82;8.82;;;;;;;9.94;74.67;101718.81;3613695;39;20062;-69
2023/03/20 00:26:51;;;;;;;15.57;9.38;;;;;;;10.12;74.72;101744.00;3615021;39;20067;-69
2023/03/20 00:29:29;;;;;;;16.10;8.75;;;;;;;10.07;74.64;101730.75;3608973;39;20082;-68
2023/03/20 00:31:56;;;;;;;18.67;9.27;;;;;;;10.02;74.92;101718.47;3611774;39;20372;-69
2023/03/20 00:34:27;;;;;;;13.15;8.52;;;;;;;9.14;73.84;101587.28;3607487;39;20047;-69
2023/03/20 00:36:55;;;;;;;16.35;9.20;;;;;;;9.87;74.06;101722.75;3612689;39;20051;-68
2023/03/20 00:39:22;;;;;;;14.85;8.57;;;;;;;9.76;74.08;101720.50;3614000;39;20148;-69
2023/03/20 00:41:59;;;;;;;13.27;8.32;;;;;;;9.69;74.68;101716.34;3613806;39;20393;-69
2023/03/20 00:44:49;;;;;;;15.43;8.63;;;;;;;9.58;74.52;101707.88;3616760;39;20062;-69
2023/03/20 00:47:23;;;;;;;15.38;8.30;;;;;;;9.51;75.37;101708.19;3609568;39;20056;-69
2023/03/20 00:49:53;;;;;;;12.60;8.38;;;;;;;9.45;75.49;101705.75;3614529;39;20554;-69
2023/03/20 00:52:20;;;;;;;14.55;8.85;;;;;;;9.40;74.86;101701.53;3610747;39;20111;-69
2023/03/20 00:54:47;;;;;;;14.65;9.18;;;;;;;9.35;75.60;101698.16;3599246;39;20080;-69
2023/03/20 00:57:28;;;;;;;17.38;9.48;;;;;;;8.92;76.09;101665.97;3610344;39;20405;-69
2023/03/20 01:00:07;;;;;;;11.40;8.75;;;;;;;9.22;75.34;101714.75;3616855;39;20090;-69
2023/03/20 01:02:33;;;;;;;15.93;9.18;;;;;;;9.17;76.03;101732.00;3608428;39;20438;-69
2023/03/20 01:05:00;;;;;;;17.60;9.90;;;;;;;9.11;76.46;101735.81;3606491;39;20051;-69
2023/03/20 01:07:26;;;;;;;14.48;10.40;;;;;;;8.74;76.58;101689.03;3610464;39;20314;-69
2023/03/20 01:09:52;;;;;;;17.58;10.10;;;;;;;9.02;76.80;101749.59;3610485;39;20096;-69
2023/03/20 01:12:18;;;;;;;15.38;9.48;;;;;;;8.97;76.58;101763.16;3613580;39;20297;-68
2023/03/20 01:14:49;;;;;;;19.42;10.57;;;;;;;8.90;76.65;101764.34;3609727;39;20110;-68
2023/03/20 01:17:22;;;;;;;18.98;10.60;;;;;;;8.86;76.89;101759.19;3610677;39;20116;-69
2023/03/20 01:19:48;;;;;;;16.58;10.50;;;;;;;8.77;76.88;101744.34;3604127;39;20363;-69
2023/03/20 01:22:14;;;;;;;20.55;11.63;;;;;;;8.74;76.95;101736.41;3610419;39;20078;-69
2023/03/20 01:24:40;;;;;;;18.70;11.18;;;;;;;8.71;76.81;101731.19;3606421;39;20058;-69
2023/03/20 01:27:18;;;;;;;18.63;11.40;;;;;;;8.69;77.18;101725.88;3614914;39;20128;-71
2023/03/20 01:29:44;;;;;;;18.55;11.45;;;;;;;8.57;77.36;101710.28;3612038;39;20066;-69
2023/03/20 01:32:15;;;;;;;18.38;10.88;;;;;;;8.64;77.00;101743.06;3618108;39;20050;-69
2023/03/20 01:34:41;;;;;;;16.83;11.15;;;;;;;8.62;77.80;101739.56;3610070;39;20063;-69
2023/03/20 01:37:17;;;;;;;18.13;11.40;;;;;;;8.41;76.81;101715.38;3609189;39;20066;-69
2023/03/20 01:39:42;;;;;;;18.50;11.35;;;;;;;8.55;77.00;101734.44;3612366;39;20050;-69
2023/03/20 01:42:14;;;;;;;17.92;11.27;;;;;;;8.47;77.60;101725.84;3615604;39;20090;-69
2023/03/20 01:44:40;;;;;;;18.98;11.30;;;;;;;8.47;77.14;101736.56;3601509;39;20481;-69
2023/03/20 01:47:20;;;;;;;19.17;11.60;;;;;;;8.21;77.36;101696.47;3617921;39;20114;-69
2023/03/20 01:50:31;;;;;;;21.17;11.45;;;;;;;7.66;77.11;101603.91;3616121;39;20070;-68
2023/03/20 01:53:23;;;;;;;20.27;11.43;;;;;;;8.41;77.63;101733.25;3611022;39;20254;-68
2023/03/20 01:55:55;;;;;;;20.45;11.60;;;;;;;8.35;77.86;101720.94;3611996;39;20400;-68
2023/03/20 01:58:32;;;;;;;21.15;12.60;;;;;;;8.36;78.03;101728.03;3614195;39;20054;-68
2023/03/20 02:00:59;;;;;;;19.02;11.90;;;;;;;8.34;77.51;101730.78;3615364;39;20052;-69
2023/03/20 02:03:25;;;;;;;21.17;12.07;;;;;;;8.33;77.69;101738.84;3618782;39;20064;-68
2023/03/20 02:05:51;;;;;;;18.60;11.15;;;;;;;8.30;77.66;101731.81;3616412;39;20070;-68
2023/03/20 02:08:27;;;;;;;18.83;11.77;;;;;;;8.28;78.04;101724.78;3609993;39;20058;-69
2023/03/20 02:10:57;;;;;;;20.85;12.27;;;;;;;8.23;77.90;101726.75;3607184;39;20043;-68
2023/03/20 02:13:26;;;;;;;21.42;12.23;;;;;;;7.71;78.63;101656.38;3610900;39;20166;-69
2023/03/20 02:16:01;;;;;;;21.65;12.23;;;;;;;8.18;78.43;101756.38;3609630;39;20058;-69
2023/03/20 02:18:28;;;;;;;21.58;13.05;;;;;;;8.17;78.94;101743.03;3610144;39;20046;-67
2023/03/20 02:21:08;;;;;;;19.08;12.52;;;;;;;8.14;79.08;101747.56;3608906;39;20058;-67
2023/03/20 02:23:54;;;;;;;20.60;13.27;;;;;;;8.11;78.45;101744.13;3609581;39;20296;-67
2023/03/20 02:27:00;;;;;;;22.10;12.88;;;;;;;8.05;78.63;101761.28;3612969;39;20358;-68
2023/03/20 02:30:06;;;;;;;23.05;12.60;;;;;;;8.06;79.20;101765.75;3614068;39;20085;-67
2023/03/20 02:32:54;;;;;;;23.13;13.57;;;;;;;8.06;79.52;101760.38;3618168;39;20055;-67
2023/03/20 02:36:01;;;;;;;20.40;13.02;;;;;;;8.05;79.66;101755.94;3613903;39;20043;-67
2023/03/20 02:38:57;;;;;;;23.35;13.73;;;;;;;8.02;79.50;101739.13;3612844;39;20088;-68
2023/03/20 02:41:35;;;;;;;24.25;14.70;;;;;;;7.98;79.79;101735.69;3614987;39;20055;-68
2023/03/20 02:44:33;;;;;;;26.05;14.45;;;;;;;8.01;79.57;101727.53;3615404;39;20062;-68
2023/03/20 02:47:27;;;;;;;21.00;13.50;;;;;;;8.00;79.79;101736.50;3618256;39;20070;-68
2023/03/20 02:50:15;;;;;;;21.25;13.68;;;;;;;8.01;79.50;101722.19;3614744;39;20381;-68
2023/03/20 02:53:11;;;;;;;23.98;14.55;;;;;;;7.98;78.81;101716.94;3613587;39;20047;-68
2023/03/20 02:56:19;;;;;;;24.00;14.43;;;;;;;7.89;79.89;101701.22;3611152;39;20274;-69
2023/03/20 02:59:12;;;;;;;21.05;13.30;;;;;;;7.97;79.70;101719.69;3614421;39;21677;-68
2023/03/20 03:01:54;;;;;;;26.00;14.70;;;;;;;7.95;79.79;101727.75;3601282;39;20057;-69
2023/03/20 03:04:32;;;;;;;25.45;14.65;;;;;;;7.95;79.53;101709.00;3609035;39;20059;-67
2023/03/20 03:07:02;;;;;;;23.70;13.95;;;;;;;7.95;79.42;101714.38;3608718;39;20056;-67
2023/03/20 03:09:41;;;;;;;24.95;15.23;;;;;;;7.94;79.51;101707.28;3612894;39;20051;-67
2023/03/20 03:12:34;;;;;;;22.42;13.82;;;;;;;7.93;79.23;101710.00;3612420;39;20051;-67
2023/03/20 03:15:12;;;;;;;26.30;15.20;;;;;;;7.91;78.85;101704.72;3610818;39;20059;-67
2023/03/20 03:17:43;;;;;;;23.85;14.23;;;;;;;7.88;79.42;101700.34;3612754;39;20062;-68
2023/03/20 03:20:31;;;;;;;25.08;14.32;;;;;;;7.76;79.59;101667.78;3611147;39;20054;-68
2023/03/20 03:22:58;;;;;;;27.23;15.00;;;;;;;7.90;79.63;101684.25;3613919;39;20364;-67
2023/03/20 03:25:31;;;;;;;21.38;13.27;;;;;;;7.88;79.63;101678.06;3615084;39;20050;-68
2023/03/20 03:28:14;;;;;;;;;;;;;;;7.91;79.45;101683.28;3614529;39;20130;-68
2023/03/20 03:30:44;;;;;;;21.30;13.65;;;;;;;7.92;80.05;101674.31;3611654;39;20028;-68
2023/03/20 03:33:27;;;;;;;25.67;13.75;;;;;;;7.93;79.48;101684.13;3613236;39;20066;-68
2023/03/20 03:36:05;;;;;;;23.40;14.00;;;;;;;7.94;79.02;101693.03;3612233;39;20050;-68
2023/03/20 03:39:36;;;;;;;23.05;13.25;;;;;;;7.94;79.31;101688.53;3615621;39;20511;-68
2023/03/20 03:42:54;;;;;;;20.98;12.27;;;;;;;7.91;78.79;101699.34;3614237;39;20050;-68
2023/03/20 03:45:34;;;;;;;21.85;13.05;;;;;;;7.88;79.00;101668.22;3607408;39;20102;-67
2023/03/20 03:48:13;;;;;;;22.85;13.75;;;;;;;7.88;79.57;101672.69;3612069;39;20059;-67
2023/03/20 03:51:04;;;;;;;22.33;12.57;;;;;;;7.83;79.02;101674.66;3615301;39;20114;-68
2023/03/20 03:53:42;;;;;;;20.75;13.88;;;;;;;7.87;78.70;101670.97;3615365;39;20445;-68
2023/03/20 03:56:13;;;;;;;20.65;12.73;;;;;;;7.85;79.92;101668.31;3614054;39;20059;-68
2023/03/20 03:58:47;;;;;;;22.58;12.85;;;;;;;7.83;78.76;101664.84;3600889;39;20059;-68
2023/03/20 04:01:18;;;;;;;21.20;13.40;;;;;;;7.84;79.40;101674.63;3614190;39;20067;-68
2023/03/20 04:03:55;;;;;;;19.88;12.88;;;;;;;7.83;78.81;101670.22;3610309;39;20152;-67
2023/03/20 04:06:22;;;;;;;19.65;12.63;;;;;;;7.51;78.52;101608.94;3616343;39;20122;-68
2023/03/20 04:08:48;;;;;;;24.77;13.50;;;;;;;7.84;78.82;101666.59;3615655;39;20065;-68
2023/03/20 04:11:24;;;;;;;22.75;13.50;;;;;;;7.83;79.10;101663.97;3620111;39;20054;-68
2023/03/20 04:13:51;;;;;;;23.13;12.80;;;;;;;7.78;78.66;101655.25;3612586;39;20418;-68
2023/03/20 04:16:22;;;;;;;19.20;12.35;;;;;;;7.76;78.83;101651.75;3611027;39;20058;-68
2023/03/20 04:18:49;;;;;;;21.38;12.90;;;;;;;7.76;78.42;101659.75;3611608;39;20112;-68
2023/03/20 04:21:15;;;;;;;21.92;12.80;;;;;;;7.71;79.16;101659.94;3613216;39;20063;-68
2023/03/20 04:23:41;;;;;;;19.42;12.18;;;;;;;7.73;78.92;101657.19;3613350;39;20684;-68
2023/03/20 04:26:08;;;;;;;20.85;12.70;;;;;;;7.72;78.94;101658.16;3601437;39;20047;-68
2023/03/20 04:28:34;;;;;;;21.33;12.43;;;;;;;7.76;78.94;101657.09;3609126;39;20065;-70
2023/03/20 04:31:01;;;;;;;20.10;12.10;;;;;;;7.76;78.60;101662.44;3611799;39;20285;-68
2023/03/20 04:33:28;;;;;;;20.35;12.73;;;;;;;7.75;78.92;101661.56;3612423;39;20123;-69
2023/03/20 04:35:55;;;;;;;22.48;12.77;;;;;;;7.77;78.24;101664.19;3614392;39;20047;-69
2023/03/20 04:38:22;;;;;;;18.05;11.93;;;;;;;7.48;78.45;101614.41;3615176;39;20090;-68
2023/03/20 04:40:48;;;;;;;20.42;12.77;;;;;;;7.70;78.33;101649.28;3614892;39;20099;-69
2023/03/20 04:43:15;;;;;;;16.25;10.98;;;;;;;7.68;78.53;101654.72;3611874;39;20053;-68
2023/03/20 04:45:41;;;;;;;19.00;11.98;;;;;;;7.63;78.65;101651.31;3610944;39;20054;-68
2023/03/20 04:48:07;;;;;;;21.52;11.95;;;;;;;7.64;78.40;101651.28;3610797;39;20054;-68
2023/03/20 04:50:33;;;;;;;19.90;12.15;;;;;;;7.66;79.02;101656.56;3613319;39;20046;-68
2023/03/20 04:52:59;;;;;;;18.70;12.63;;;;;;;7.64;78.87;101645.94;3614453;39;20063;-68
2023/03/20 04:55:25;;;;;;;18.98;11.40;;;;;;;7.65;78.89;101636.97;3609491;39;20309;-68
2023/03/20 04:57:50;;;;;;;19.08;11.88;;;;;;;7.63;79.26;101636.13;3612909;39;20051;-68
2023/03/20 05:00:17;;;;;;;20.85;11.85;;;;;;;7.63;78.87;101641.47;3613962;39;20053;-68
2023/03/20 05:02:43;;;;;;;20.20;12.70;;;;;;;7.39;78.57;101599.56;3612376;39;20121;-68
2023/03/20 05:05:09;;;;;;;22.15;12.10;;;;;;;7.61;78.91;101638.00;3611833;39;20127;-68
2023/03/20 05:07:36;;;;;;;20.05;12.23;;;;;;;7.64;78.71;101648.59;3604152;39;20075;-68
2023/03/20 05:10:03;;;;;;;20.15;11.27;;;;;;;7.68;79.07;101652.91;3609908;39;20059;-68
2023/03/20 05:12:29;;;;;;;18.88;10.93;;;;;;;7.72;78.62;101650.13;3613504;39;20051;-68
2023/03/20 05:14:54;;;;;;;19.33;12.05;;;;;;;7.75;78.33;101644.66;3617016;39;20048;-68
2023/03/20 05:17:22;;;;;;;20.05;11.85;;;;;;;7.54;78.24;101601.69;3602634;39;20054;-68
2023/03/20 05:19:48;;;;;;;21.70;12.70;;;;;;;7.55;78.00;101611.47;3607333;39;20378;-67
2023/03/20 05:22:17;;;;;;;18.70;12.20;;;;;;;7.75;78.16;101628.59;3608383;39;20362;-68
2023/03/20 05:24:43;;;;;;;18.67;10.98;;;;;;;7.75;78.07;101631.28;3611990;39;20054;-68
2023/03/20 05:27:10;;;;;;;19.70;11.38;;;;;;;7.76;78.48;101631.19;3611799;39;20065;-68
2023/03/20 05:29:36;;;;;;;21.17;11.10;;;;;;;7.79;78.09;101624.88;3608483;39;20059;-68
2023/03/20 05:32:02;;;;;;;19.73;11.32;;;;;;;7.83;77.82;101632.75;3609597;39;20361;-67
2023/03/20 05:34:27;;;;;;;18.85;10.98;;;;;;;7.84;77.82;101636.28;3606608;39;20294;-67
2023/03/20 05:36:53;;;;;;;15.32;10.77;;;;;;;7.64;78.23;101605.78;3608648;39;20038;-66
2023/03/20 05:39:19;;;;;;;18.35;10.40;;;;;;;7.84;77.85;101630.94;3608326;39;20091;-66
2023/03/20 05:41:45;;;;;;;20.73;10.43;;;;;;;7.84;78.27;101631.78;3609171;39;20302;-66
2023/03/20 05:44:10;;;;;;;18.00;10.07;;;;;;;7.86;77.45;101631.72;3606409;39;20122;-66
2023/03/20 05:46:37;;;;;;;16.92;10.20;;;;;;;7.82;77.58;101632.78;3613089;39;20062;-66
2023/03/20 05:49:02;;;;;;;16.80;9.50;;;;;;;7.85;78.04;101635.34;3617065;39;20434;-68
2023/03/20 05:51:28;;;;;;;14.30;9.07;;;;;;;7.85;78.00;101635.34;3607927;39;20048;-66
2023/03/20 05:53:54;;;;;;;16.00;9.30;;;;;;;7.90;78.16;101636.91;3608445;39;20067;-66
2023/03/20 05:56:19;;;;;;;18.17;9.35;;;;;;;7.91;77.79;101645.81;3606957;39;20043;-66
2023/03/20 05:58:45;;;;;;;16.50;9.18;;;;;;;7.93;77.71;101649.31;3609953;39;20046;-66
2023/03/20 06:01:11;;;;;;;16.70;8.82;;;;;;;7.69;77.60;101613.63;3606074;39;20110;-66
2023/03/20 06:03:37;;;;;;;14.95;9.07;;;;;;;7.91;77.48;101648.50;3610629;39;20054;-66
2023/03/20 06:06:03;;;;;;;16.20;9.52;;;;;;;7.52;77.84;101595.53;3608307;39;20312;-70
2023/03/20 06:08:29;;;;;;;14.27;9.15;;;;;;;8.00;77.69;101664.22;3610999;39;20405;-69
2023/03/20 06:10:55;;;;;;;14.18;8.85;;;;;;;8.01;77.44;101668.63;3610595;39;20053;-69
2023/03/20 06:13:21;;;;;;;18.00;9.27;;;;;;;8.03;77.37;101666.78;3608839;39;20358;-69
2023/03/20 06:15:46;;;;;;;13.80;8.75;;;;;;;8.06;77.03;101666.66;3606013;39;20047;-69
2023/03/20 06:18:12;;;;;;;19.50;9.85;;;;;;;8.06;76.92;101665.78;3609025;39;20063;-69
2023/03/20 06:20:38;;;;;;;18.48;10.13;;;;;;;8.08;77.27;101674.63;3609506;39;20363;-69
2023/03/20 06:23:03;;;;;;;17.45;8.95;;;;;;;8.06;76.94;101672.03;3609974;39;20079;-70
2023/03/20 06:25:29;;;;;;;16.20;8.45;;;;;;;8.05;77.35;101674.75;3613258;39;20062;-70
2023/03/20 06:27:54;;;;;;;16.27;9.00;;;;;;;8.12;76.90;101678.97;3608832;39;20104;-70
2023/03/20 06:30:20;;;;;;;18.38;9.55;;;;;;;8.13;77.00;101676.22;3612138;39;20405;-69
2023/03/20 06:32:47;;;;;;;18.95;9.00;;;;;;;7.61;76.83;101575.56;3602710;39;20047;-70
2023/03/20 06:35:13;;;;;;;17.13;9.18;;;;;;;8.16;77.00;101677.03;3607732;39;20171;-70
2023/03/20 06:37:39;;;;;;;19.63;9.20;;;;;;;8.02;76.31;101654.31;3610859;39;20047;-69
2023/03/20 06:40:06;;;;;;;19.38;8.65;;;;;;;8.23;76.78;101683.88;3608462;39;20055;-69
2023/03/20 06:42:31;;;;;;;15.27;8.65;;;;;;;7.85;76.61;101619.28;3608628;39;20111;-70
2023/03/20 06:44:57;;;;;;;20.25;9.80;;;;;;;8.06;76.14;101655.97;3598551;39;20212;-70
2023/03/20 06:47:23;;;;;;;17.60;8.30;;;;;;;8.30;75.65;101694.28;3608615;39;20381;-70
2023/03/20 06:49:48;;;;;;;19.92;9.32;;;;;;;8.34;76.34;101697.72;3608950;39;20070;-69
2023/03/20 06:52:21;;;;;;;14.23;9.18;;;;;;;8.39;75.39;101703.81;3602436;39;20053;-69
2023/03/20 06:54:47;;;;;;;16.98;8.43;;;;;;;8.44;75.21;101715.25;3604178;39;20057;-69
2023/03/20 06:57:13;;;;;;;17.80;8.98;;;;;;;8.47;75.81;101715.13;3603281;39;20059;-69
2023/03/20 06:59:38;;;;;;;14.40;7.80;;;;;;;8.49;75.05;101713.25;3607929;39;21090;-69
2023/03/20 07:02:04;;;;;;;18.90;8.50;;;;;;;8.29;73.98;101692.56;3607616;39;20066;-69
2023/03/20 07:04:30;;;;;;;16.75;8.27;;;;;;;8.48;74.92;101713.31;3610662;39;20047;-68
2023/03/20 07:06:57;;;;;;;17.48;8.27;;;;;;;8.43;74.22;101710.81;3612657;39;20058;-69
2023/03/20 07:09:23;;;;;;;19.05;8.82;;;;;;;8.49;74.41;101726.66;3595794;39;20109;-69
2023/03/20 07:11:48;;;;;;;14.82;8.27;;;;;;;8.48;74.56;101722.22;3607610;39;20047;-69
2023/03/20 07:14:14;;;;;;;18.42;8.02;;;;;;;8.47;74.20;101730.31;3611632;39;20070;-70
2023/03/20 07:16:40;;;;;;;16.48;8.65;;;;;;;8.49;74.33;101723.97;3610443;39;20313;-69
2023/03/20 07:19:06;;;;;;;16.80;8.63;;;;;;;8.56;74.63;101730.84;3609718;39;20184;-68
2023/03/20 07:21:33;;;;;;;17.65;8.07;;;;;;;8.22;73.85;101666.09;3610822;39;20063;-69
2023/03/20 07:24:00;;;;;;;18.10;8.50;;;;;;;8.56;74.05;101713.88;3608904;39;20074;-69
2023/03/20 07:26:25;;;;;;;18.15;9.10;;;;;;;8.71;73.91;101736.53;3616111;39;20357;-69
2023/03/20 07:28:51;;;;;;;23.15;9.10;;;;;;;8.68;73.37;101725.94;3614095;39;20059;-69
2023/03/20 07:31:21;;;;;;;16.55;8.32;;;;;;;8.75;73.36;101733.69;3608604;39;20051;-69
2023/03/20 07:33:47;;;;;;;17.15;8.27;;;;;;;8.80;73.53;101734.38;3607477;39;20114;-69
2023/03/20 07:36:13;;;;;;;21.13;9.45;;;;;;;8.89;73.46;101733.13;3609188;39;20619;-69
2023/03/20 07:38:38;;;;;;;16.70;8.70;;;;;;;8.94;72.83;101744.53;3607553;39;20048;-69
2023/03/20 07:41:04;;;;;;;12.98;7.93;;;;;;;8.94;71.73;101739.16;3604602;39;20174;-71
2023/03/20 07:43:30;;;;;;;16.95;8.20;;;;;;;8.96;72.54;101739.97;3610196;39;20043;-69
2023/03/20 07:45:55;;;;;;;14.27;7.95;;;;;;;8.97;72.48;101743.53;3610206;39;20412;-69
2023/03/20 07:48:21;;;;;;;16.67;7.97;;;;;;;9.03;72.77;101741.47;3609121;39;20047;-69
2023/03/20 07:50:47;;;;;;;18.88;8.80;;;;;;;9.04;72.01;101727.16;3608301;39;20063;-69
2023/03/20 07:53:12;;;;;;;17.08;7.88;;;;;;;9.09;71.31;101728.75;3606443;39;20059;-69
2023/03/20 07:55:38;;;;;;;17.33;8.13;;;;;;;9.06;71.45;101730.63;3609393;39;20304;-69
2023/03/20 07:58:03;;;;;;;19.50;8.10;;;;;;;9.11;70.83;101743.00;3607513;39;20132;-69
2023/03/20 08:00:30;;;;;;;20.08;8.20;;;;;;;9.11;70.63;101737.63;3608104;39;20119;-69
2023/03/20 08:02:55;;;;;;;17.25;7.95;;;;;;;8.56;70.48;101647.78;3613572;39;20054;-70
2023/03/20 08:05:22;;;;;;;16.90;7.68;;;;;;;9.16;71.47;101732.94;3605461;39;20051;-69
2023/03/20 08:07:48;;;;;;;14.63;7.18;;;;;;;9.20;70.32;101742.63;3607570;39;20062;-69
2023/03/20 08:10:13;;;;;;;18.08;8.10;;;;;;;9.22;70.23;101738.03;3604838;39;20096;-71
2023/03/20 08:12:39;;;;;;;15.98;7.68;;;;;;;9.26;70.29;101739.66;3614010;39;20062;-69
2023/03/20 08:15:05;;;;;;;13.90;7.20;;;;;;;9.21;69.94;101741.66;3608045;39;20078;-69
2023/03/20 08:17:31;;;;;;;20.45;7.75;;;;;;;9.22;70.14;101740.72;3609420;39;20070;-69
2023/03/20 08:19:56;;;;;;;15.55;7.70;;;;;;;9.21;70.25;101738.97;3607640;39;20057;-69
2023/03/20 08:22:22;;;;;;;17.77;7.18;;;;;;;9.20;69.48;101740.81;3608841;39;20055;-69
2023/03/20 08:24:48;;;;;;;16.85;7.20;;;;;;;9.17;70.07;101737.38;3610151;39;20051;-69
2023/03/20 08:27:13;;;;;;;13.50;6.80;;;;;;;9.10;70.18;101719.75;3610197;39;20062;-69
2023/03/20 08:29:39;;;;;;;16.20;6.75;;;;;;;9.16;68.90;101727.56;3611948;39;20057;-69
2023/03/20 08:32:05;;;;;;;14.80;6.18;;;;;;;9.19;69.69;101732.78;3608164;39;20144;-69
2023/03/20 08:34:32;;;;;;;16.45;6.97;;;;;;;9.00;70.05;101690.63;3608215;39;20470;-70
2023/03/20 08:36:58;;;;;;;14.32;6.70;;;;;;;9.31;69.80;101734.97;3606082;39;20047;-69
2023/03/20 08:39:23;;;;;;;16.20;6.80;;;;;;;9.31;69.29;101740.34;3596608;39;20432;-69
2023/03/20 08:41:49;;;;;;;15.90;6.65;;;;;;;9.34;69.69;101734.84;3612116;39;20304;-69
2023/03/20 08:44:15;;;;;;;13.52;6.07;;;;;;;9.38;69.65;101741.81;3612495;39;20055;-69
2023/03/20 08:46:42;;;;;;;14.40;6.47;;;;;;;9.41;69.36;101725.59;3611901;39;20065;-69
2023/03/20 08:49:08;;;;;;;17.73;7.57;;;;;;;9.58;70.11;101742.78;3611511;39;20369;-69
2023/03/20 08:51:34;;;;;;;16.35;7.47;;;;;;;9.61;69.05;101737.28;3605958;39;20095;-70
2023/03/20 08:53:59;;;;;;;18.40;6.30;;;;;;;9.63;69.10;101741.66;3611293;39;20503;-70
2023/03/20 08:56:25;;;;;;;19.75;7.13;;;;;;;9.69;69.27;101738.69;3611453;39;20292;-69
2023/03/20 08:58:52;;;;;;;15.13;6.35;;;;;;;9.68;68.98;101744.16;3610746;39;20316;-69
2023/03/20 09:01:18;;;;;;;13.52;5.85;;;;;;;9.69;69.23;101733.31;3595971;39;20047;-69
2023/03/20 09:03:44;;;;;;;16.20;6.50;;;;;;;9.69;68.52;101727.97;3608894;39;20058;-69
2023/03/20 09:06:10;;;;;;;15.52;6.72;;;;;;;9.53;68.88;101708.09;3607319;39;20071;-69
2023/03/20 09:08:36;;;;;;;12.73;6.20;;;;;;;9.68;68.95;101731.59;3608803;39;20058;-69
2023/03/20 09:11:04;;;;;;;16.35;6.38;;;;;;;9.71;68.62;101734.16;3609745;39;20104;-69
2023/03/20 09:13:29;;;;;;;14.00;7.45;;;;;;;9.67;68.97;101740.59;3609493;39;20046;-69
2023/03/20 09:15:55;;;;;;;15.88;6.32;;;;;;;9.62;68.57;101749.78;3609173;39;20088;-69
2023/03/20 09:18:23;;;;;;;14.00;6.60;;;;;;;9.54;69.57;101759.00;3609922;39;20086;-68
2023/03/20 09:20:49;;;;;;;17.05;6.40;;;;;;;9.35;71.08;101747.31;3609295;39;20080;-69
2023/03/20 09:23:16;;;;;;;16.50;6.70;;;;;;;9.38;72.20;101752.56;3610883;39;20043;-69
2023/03/20 09:25:42;;;;;;;19.10;7.85;;;;;;;9.28;73.09;101756.56;3611127;39;20128;-69
2023/03/20 09:28:08;;;;;;;14.63;6.93;;;;;;;9.19;73.89;101763.19;3608442;39;20639;-67
2023/03/20 09:30:33;;;;;;;14.30;6.88;;;;;;;9.15;75.68;101766.06;3605129;39;20057;-67
2023/03/20 09:32:59;;;;;;;21.23;7.60;;;;;;;9.10;76.16;101765.34;3600914;39;20070;-64
2023/03/20 09:35:25;;;;;;;24.77;12.82;;;;;;;8.97;76.56;101757.81;3605952;39;20688;-64
2023/03/20 09:37:51;;;;;;;18.48;7.25;;;;;;;8.83;77.22;101736.91;3609690;39;20054;-64
2023/03/20 09:40:27;;;;;;;18.98;7.10;;;;;;;8.93;77.73;101761.56;3610512;39;20400;-64
2023/03/20 09:43:37;;;;;;;14.13;7.40;;;;;;;8.87;78.62;101756.44;3609862;39;20067;-64
2023/03/20 09:46:24;;;;;;;16.48;7.00;;;;;;;8.83;78.41;101757.50;3606413;39;20051;-64
2023/03/20 09:49:10;;;;;;;15.93;7.88;;;;;;;8.79;77.51;101753.19;3608747;39;20054;-64
2023/03/20 09:51:55;;;;;;;18.90;7.90;;;;;;;8.81;79.39;101751.31;3608113;39;20054;-64
2023/03/20 09:54:36;;;;;;;15.55;7.20;;;;;;;8.81;80.22;101752.19;3608905;39;20385;-64
2023/03/20 09:57:06;;;;;;;15.07;6.82;;;;;;;8.33;79.50;101663.84;3610131;39;20051;-64
2023/03/20 09:59:35;;;;;;;15.73;7.35;;;;;;;8.75;79.85;101736.38;3609883;39;20072;-64
2023/03/20 10:02:23;;;;;;;16.45;7.18;;;;;;;8.82;79.37;101743.22;3607709;39;20055;-64
2023/03/20 10:04:54;;;;;;;13.25;6.03;;;;;;;8.58;79.50;101702.16;3609698;39;20055;-64
2023/03/20 10:07:21;;;;;;;13.20;6.55;;;;;;;8.78;80.36;101746.06;3610355;39;20051;-64
2023/03/20 10:09:47;;;;;;;16.92;6.78;;;;;;;8.83;80.66;101749.47;3608493;39;20337;-63
2023/03/20 10:12:50;;;;;;;11.98;6.53;;;;;;;8.85;80.55;101747.59;3610396;39;20069;-64
2023/03/20 10:15:28;;;;;;;16.40;6.70;;;;;;;8.82;80.51;101743.22;3610395;39;20093;-64
2023/03/20 10:18:25;;;;;;;12.55;6.18;;;;;;;8.87;80.44;101735.00;3603752;39;20058;-64
2023/03/20 10:21:31;;;;;;;12.15;6.22;;;;;;;8.89;81.11;101743.84;3608392;39;20311;-64
2023/03/20 10:24:05;;;;;;;16.33;6.15;;;;;;;8.92;80.90;101737.50;3609527;39;20051;-64
2023/03/20 10:26:35;;;;;;;12.43;5.80;;;;;;;8.94;79.88;101735.59;3609276;39;20055;-64
2023/03/20 10:29:15;;;;;;;16.98;6.10;;;;;;;8.96;79.60;101725.72;3609721;39;20328;-64
2023/03/20 10:31:58;;;;;;;14.13;6.30;;;;;;;9.06;79.97;101727.94;3610939;39;20139;-64
2023/03/20 10:34:52;;;;;;;13.85;5.75;;;;;;;9.20;79.89;101726.53;3605601;39;20047;-64
2023/03/20 10:37:51;;;;;;;13.60;5.50;;;;;;;9.32;79.13;101722.44;3607968;39;20118;-64
2023/03/20 10:40:34;;;;;;;16.45;6.03;;;;;;;9.07;77.81;101684.09;3611962;39;20276;-65
2023/03/20 10:43:23;;;;;;;;;;;;;;;9.32;79.41;101725.97;3612059;39;20095;-64
2023/03/20 10:46:03;;;;;;;14.30;6.25;;;;;;;9.35;78.83;101725.84;3610177;39;19935;-65
2023/03/20 10:48:44;;;;;;;13.48;6.07;;;;;;;9.44;78.30;101720.09;3611692;39;20058;-65
2023/03/20 10:51:20;;;;;;;14.60;6.60;;;;;;;9.39;78.48;101700.66;3611584;39;20123;-65
2023/03/20 10:53:55;;;;;;;14.95;6.53;;;;;;;9.58;78.43;101718.63;3608263;39;20121;-65
2023/03/20 10:56:45;;;;;;;12.45;6.88;;;;;;;9.61;77.88;101718.50;3611876;39;20328;-65
2023/03/20 10:59:43;;;;;;;13.90;6.70;;;;;;;9.68;78.56;101725.34;3610826;39;20067;-65
2023/03/20 11:02:16;;;;;;;13.13;6.90;;;;;;;9.75;78.87;101727.69;3610074;39;20069;-65
2023/03/20 11:04:43;;;;;;;16.27;6.80;;;;;;;9.82;78.18;101714.00;3610112;39;20406;-65
2023/03/20 11:07:25;;;;;;;13.60;6.35;;;;;;;9.69;76.95;101681.47;3610643;39;20767;-65
2023/03/20 11:10:10;;;;;;;12.43;5.95;;;;;;;9.81;76.10;101710.44;3608251;39;20417;-66
2023/03/20 11:12:39;;;;;;;10.10;6.10;;;;;;;9.85;75.98;101709.38;3611191;39;20366;-65
2023/03/20 11:15:31;;;;;;;13.82;5.93;;;;;;;9.85;75.53;101706.69;3608476;39;20063;-66
2023/03/20 11:18:00;;;;;;;13.35;6.30;;;;;;;9.84;75.06;101707.63;3610346;39;20453;-66
2023/03/20 11:20:43;;;;;;;12.50;5.50;;;;;;;9.87;75.49;101702.13;3611060;39;20051;-65
2023/03/20 11:23:18;;;;;;;10.30;4.88;;;;;;;9.92;75.53;101688.47;3609416;39;20062;-66
2023/03/20 11:25:59;;;;;;;12.10;4.60;;;;;;;9.92;74.79;101683.97;3608630;39;20051;-67
2023/03/20 11:28:37;;;;;;;12.52;5.18;;;;;;;9.94;74.23;101683.91;3610877;39;20061;-68
2023/03/20 11:31:40;;;;;;;14.32;4.70;;;;;;;9.94;74.69;101682.09;3608746;39;20062;-67
2023/03/20 11:34:06;;;;;;;14.15;5.75;;;;;;;10.04;75.13;101676.31;3605723;39;20385;-68
2023/03/20 11:36:35;;;;;;;14.00;5.05;;;;;;;10.09;74.72;101666.22;3610496;39;20058;-68
2023/03/20 11:39:26;;;;;;;15.45;5.50;;;;;;;10.16;74.55;101671.25;3599691;39;20049;-68
2023/03/20 11:41:55;;;;;;;16.25;5.15;;;;;;;10.21;74.07;101684.44;3608354;39;20043;-69
2023/03/20 11:44:26;;;;;;;11.50;5.03;;;;;;;10.27;73.79;101667.19;3607728;39;20131;-69
2023/03/20 11:47:25;;;;;;;17.42;4.93;;;;;;;10.34;73.87;101665.97;3609462;39;20046;-69